sensor_id;sensor_type;location;lat;lon;timestamp;P1;durP1;ratioP1;P2;durP2;ratioP2
17091;SDS011;8661;45.700;4.880;2023-03-14T00:00:01;0.20;;;0.20;;
17091;SDS011;8661;45.700;4.880;2023-03-14T00:02:31;0.10;;;0.10;;
17091;SDS011;8661;45.700;4.880;2023-03-14T00:04:58;0.10;;;0.10;;
17091;SDS011;8661;45.700;4.880;2023-03-14T00:07:27;0.10;;;0.10;;
17091;SDS011;8661;45.700;4.880;2023-03-14T00:10:00;0.10;;;0.10;;
17091;SDS011;8661;45.700;4.880;2023-03-14T00:12:29;0.10;;;0.10;;
17091;SDS011;8661;45.700;4.880;2023-03-14T00:14:56;0.10;;;0.10;;
17091;SDS011;8661;45.700;4.880;2023-03-14T00:17:25;0.10;;;0.10;;
17091;SDS011;8661;45.700;4.880;2023-03-14T00:19:52;0.10;;;0.10;;
17091;SDS011;8661;45.700;4.880;2023-03-14T00:22:19;0.10;;;0.10;;
17091;SDS011;8661;45.700;4.880;2023-03-14T00:24:46;0.10;;;0.10;;
17091;SDS011;8661;45.700;4.880;2023-03-14T00:27:14;0.10;;;0.10;;
17091;SDS011;8661;45.700;4.880;2023-03-14T00:29:42;0.10;;;0.10;;
17091;SDS011;8661;45.700;4.880;2023-03-14T00:32:09;0.10;;;0.10;;
17091;SDS011;8661;45.700;4.880;2023-03-14T00:34:35;0.10;;;0.10;;
17091;SDS011;8661;45.700;4.880;2023-03-14T00:37:02;0.20;;;0.20;;
17091;SDS011;8661;45.700;4.880;2023-03-14T00:39:29;0.10;;;0.10;;
17091;SDS011;8661;45.700;4.880;2023-03-14T00:41:56;0.10;;;0.10;;
17091;SDS011;8661;45.700;4.880;2023-03-14T00:44:24;0.10;;;0.10;;
17091;SDS011;8661;45.700;4.880;2023-03-14T00:46:51;0.10;;;0.10;;
17091;SDS011;8661;45.700;4.880;2023-03-14T00:49:18;0.20;;;0.20;;
17091;SDS011;8661;45.700;4.880;2023-03-14T00:51:45;0.10;;;0.10;;
17091;SDS011;8661;45.700;4.880;2023-03-14T00:54:12;0.10;;;0.10;;
17091;SDS011;8661;45.700;4.880;2023-03-14T00:56:39;0.10;;;0.10;;
17091;SDS011;8661;45.700;4.880;2023-03-14T00:59:06;0.10;;;0.10;;
17091;SDS011;8661;45.700;4.880;2023-03-14T01:01:34;0.10;;;0.10;;
17091;SDS011;8661;45.700;4.880;2023-03-14T01:04:01;0.10;;;0.10;;
17091;SDS011;8661;45.700;4.880;2023-03-14T01:06:28;0.10;;;0.10;;
17091;SDS011;8661;45.700;4.880;2023-03-14T01:08:57;1.23;;;0.63;;
17091;SDS011;8661;45.700;4.880;2023-03-14T01:11:25;2.20;;;0.63;;
17091;SDS011;8661;45.700;4.880;2023-03-14T01:13:53;2.13;;;0.60;;
17091;SDS011;8661;45.700;4.880;2023-03-14T01:16:21;0.83;;;0.60;;
17091;SDS011;8661;45.700;4.880;2023-03-14T01:18:51;1.63;;;0.70;;
17091;SDS011;8661;45.700;4.880;2023-03-14T01:21:18;1.97;;;0.60;;
17091;SDS011;8661;45.700;4.880;2023-03-14T01:23:47;1.03;;;0.53;;
17091;SDS011;8661;45.700;4.880;2023-03-14T01:26:16;2.67;;;0.70;;
17091;SDS011;8661;45.700;4.880;2023-03-14T01:28:44;0.90;;;0.70;;
17091;SDS011;8661;45.700;4.880;2023-03-14T01:31:12;0.53;;;0.43;;
17091;SDS011;8661;45.700;4.880;2023-03-14T01:33:39;1.07;;;0.60;;
17091;SDS011;8661;45.700;4.880;2023-03-14T01:36:09;2.57;;;0.77;;
17091;SDS011;8661;45.700;4.880;2023-03-14T01:38:37;0.97;;;0.53;;
17091;SDS011;8661;45.700;4.880;2023-03-14T01:41:05;1.63;;;0.60;;
17091;SDS011;8661;45.700;4.880;2023-03-14T01:43:33;0.70;;;0.70;;
17091;SDS011;8661;45.700;4.880;2023-03-14T01:48:54;1.50;;;0.70;;
17091;SDS011;8661;45.700;4.880;2023-03-14T01:51:28;0.60;;;0.60;;
17091;SDS011;8661;45.700;4.880;2023-03-14T01:54:01;1.43;;;0.63;;
17091;SDS011;8661;45.700;4.880;2023-03-14T01:56:31;1.50;;;0.70;;
17091;SDS011;8661;45.700;4.880;2023-03-14T01:58:59;1.97;;;0.53;;
17091;SDS011;8661;45.700;4.880;2023-03-14T02:01:29;0.93;;;0.63;;
17091;SDS011;8661;45.700;4.880;2023-03-14T02:03:57;2.43;;;0.80;;
17091;SDS011;8661;45.700;4.880;2023-03-14T02:06:31;0.50;;;0.50;;
17091;SDS011;8661;45.700;4.880;2023-03-14T02:09:05;0.73;;;0.63;;
17091;SDS011;8661;45.700;4.880;2023-03-14T02:11:32;1.20;;;0.70;;
17091;SDS011;8661;45.700;4.880;2023-03-14T02:13:59;3.33;;;0.70;;
17091;SDS011;8661;45.700;4.880;2023-03-14T02:16:27;0.50;;;0.50;;
17091;SDS011;8661;45.700;4.880;2023-03-14T02:18:54;0.93;;;0.50;;
17091;SDS011;8661;45.700;4.880;2023-03-14T02:21:23;0.70;;;0.50;;
17091;SDS011;8661;45.700;4.880;2023-03-14T02:23:57;0.60;;;0.60;;
17091;SDS011;8661;45.700;4.880;2023-03-14T02:26:31;1.17;;;0.70;;
17091;SDS011;8661;45.700;4.880;2023-03-14T02:29:04;1.60;;;0.73;;
17091;SDS011;8661;45.700;4.880;2023-03-14T02:31:31;1.23;;;0.70;;
17091;SDS011;8661;45.700;4.880;2023-03-14T02:33:58;0.97;;;0.60;;
17091;SDS011;8661;45.700;4.880;2023-03-14T02:36:27;1.87;;;0.50;;
17091;SDS011;8661;45.700;4.880;2023-03-14T02:38:58;0.93;;;0.60;;
17091;SDS011;8661;45.700;4.880;2023-03-14T02:41:32;1.37;;;0.50;;
17091;SDS011;8661;45.700;4.880;2023-03-14T02:44:00;2.13;;;0.50;;
17091;SDS011;8661;45.700;4.880;2023-03-14T02:46:28;1.53;;;0.53;;
17091;SDS011;8661;45.700;4.880;2023-03-14T02:48:56;1.77;;;0.70;;
17091;SDS011;8661;45.700;4.880;2023-03-14T02:51:27;0.90;;;0.70;;
17091;SDS011;8661;45.700;4.880;2023-03-14T02:53:55;0.70;;;0.70;;
17091;SDS011;8661;45.700;4.880;2023-03-14T02:56:22;1.53;;;0.47;;
17091;SDS011;8661;45.700;4.880;2023-03-14T02:58:49;1.90;;;0.70;;
17091;SDS011;8661;45.700;4.880;2023-03-14T03:01:16;2.23;;;0.70;;
17091;SDS011;8661;45.700;4.880;2023-03-14T03:03:44;1.40;;;0.93;;
17091;SDS011;8661;45.700;4.880;2023-03-14T03:06:11;1.20;;;0.70;;
17091;SDS011;8661;45.700;4.880;2023-03-14T03:08:38;3.70;;;0.70;;
17091;SDS011;8661;45.700;4.880;2023-03-14T03:11:05;1.20;;;0.60;;
17091;SDS011;8661;45.700;4.880;2023-03-14T03:13:33;1.17;;;0.50;;
17091;SDS011;8661;45.700;4.880;2023-03-14T03:16:00;1.67;;;0.63;;
17091;SDS011;8661;45.700;4.880;2023-03-14T03:18:27;0.90;;;0.60;;
17091;SDS011;8661;45.700;4.880;2023-03-14T03:20:56;0.80;;;0.60;;
17091;SDS011;8661;45.700;4.880;2023-03-14T03:23:26;2.00;;;0.50;;
17091;SDS011;8661;45.700;4.880;2023-03-14T03:25:53;4.13;;;0.60;;
17091;SDS011;8661;45.700;4.880;2023-03-14T03:28:20;3.30;;;0.60;;
17091;SDS011;8661;45.700;4.880;2023-03-14T03:30:47;1.40;;;0.63;;
17091;SDS011;8661;45.700;4.880;2023-03-14T03:33:14;2.53;;;0.60;;
17091;SDS011;8661;45.700;4.880;2023-03-14T03:35:41;1.33;;;0.50;;
17091;SDS011;8661;45.700;4.880;2023-03-14T03:38:11;0.83;;;0.80;;
17091;SDS011;8661;45.700;4.880;2023-03-14T03:40:38;1.23;;;0.60;;
17091;SDS011;8661;45.700;4.880;2023-03-14T03:43:05;3.03;;;1.10;;
17091;SDS011;8661;45.700;4.880;2023-03-14T03:45:32;2.70;;;0.70;;
17091;SDS011;8661;45.700;4.880;2023-03-14T03:47:59;2.03;;;0.60;;
17091;SDS011;8661;45.700;4.880;2023-03-14T03:50:26;2.37;;;0.57;;
17091;SDS011;8661;45.700;4.880;2023-03-14T03:52:52;1.83;;;0.77;;
17091;SDS011;8661;45.700;4.880;2023-03-14T03:55:21;1.13;;;0.80;;
17091;SDS011;8661;45.700;4.880;2023-03-14T03:57:47;3.40;;;0.53;;
17091;SDS011;8661;45.700;4.880;2023-03-14T04:00:14;2.00;;;0.60;;
17091;SDS011;8661;45.700;4.880;2023-03-14T04:02:42;2.03;;;0.63;;
17091;SDS011;8661;45.700;4.880;2023-03-14T04:05:09;1.87;;;0.70;;
17091;SDS011;8661;45.700;4.880;2023-03-14T04:07:36;4.43;;;0.63;;
17091;SDS011;8661;45.700;4.880;2023-03-14T04:10:03;1.60;;;0.60;;
17091;SDS011;8661;45.700;4.880;2023-03-14T04:12:31;1.60;;;0.80;;
17091;SDS011;8661;45.700;4.880;2023-03-14T04:14:58;1.87;;;0.40;;
17091;SDS011;8661;45.700;4.880;2023-03-14T04:17:25;3.63;;;1.20;;
17091;SDS011;8661;45.700;4.880;2023-03-14T04:19:52;3.73;;;1.07;;
17091;SDS011;8661;45.700;4.880;2023-03-14T04:22:19;0.70;;;0.50;;
17091;SDS011;8661;45.700;4.880;2023-03-14T04:24:46;0.70;;;0.60;;
17091;SDS011;8661;45.700;4.880;2023-03-14T04:27:12;1.33;;;0.50;;
17091;SDS011;8661;45.700;4.880;2023-03-14T04:29:41;1.90;;;0.63;;
17091;SDS011;8661;45.700;4.880;2023-03-14T04:32:09;2.90;;;0.60;;
17091;SDS011;8661;45.700;4.880;2023-03-14T04:34:36;0.40;;;0.40;;
17091;SDS011;8661;45.700;4.880;2023-03-14T04:37:03;0.40;;;0.40;;
17091;SDS011;8661;45.700;4.880;2023-03-14T04:39:30;0.10;;;0.10;;
17091;SDS011;8661;45.700;4.880;2023-03-14T04:41:57;0.20;;;0.20;;
17091;SDS011;8661;45.700;4.880;2023-03-14T04:44:23;0.10;;;0.10;;
17091;SDS011;8661;45.700;4.880;2023-03-14T04:46:52;0.13;;;0.13;;
17091;SDS011;8661;45.700;4.880;2023-03-14T04:49:19;0.10;;;0.10;;
17091;SDS011;8661;45.700;4.880;2023-03-14T04:51:45;0.30;;;0.30;;
17091;SDS011;8661;45.700;4.880;2023-03-14T04:54:12;0.10;;;0.10;;
17091;SDS011;8661;45.700;4.880;2023-03-14T04:56:39;0.10;;;0.10;;
17091;SDS011;8661;45.700;4.880;2023-03-14T04:59:06;0.10;;;0.10;;
17091;SDS011;8661;45.700;4.880;2023-03-14T05:01:33;0.10;;;0.10;;
17091;SDS011;8661;45.700;4.880;2023-03-14T05:04:01;0.10;;;0.10;;
17091;SDS011;8661;45.700;4.880;2023-03-14T05:06:28;0.10;;;0.10;;
17091;SDS011;8661;45.700;4.880;2023-03-14T05:08:55;0.20;;;0.20;;
17091;SDS011;8661;45.700;4.880;2023-03-14T05:11:22;0.10;;;0.10;;
17091;SDS011;8661;45.700;4.880;2023-03-14T05:13:49;0.10;;;0.10;;
17091;SDS011;8661;45.700;4.880;2023-03-14T05:16:15;0.20;;;0.20;;
17091;SDS011;8661;45.700;4.880;2023-03-14T05:18:42;0.10;;;0.10;;
17091;SDS011;8661;45.700;4.880;2023-03-14T05:21:10;0.10;;;0.10;;
17091;SDS011;8661;45.700;4.880;2023-03-14T05:23:37;0.20;;;0.20;;
17091;SDS011;8661;45.700;4.880;2023-03-14T05:26:04;0.20;;;0.20;;
17091;SDS011;8661;45.700;4.880;2023-03-14T05:28:32;0.10;;;0.10;;
17091;SDS011;8661;45.700;4.880;2023-03-14T05:30:58;0.27;;;0.27;;
17091;SDS011;8661;45.700;4.880;2023-03-14T05:33:25;0.20;;;0.20;;
17091;SDS011;8661;45.700;4.880;2023-03-14T05:35:52;0.20;;;0.20;;
17091;SDS011;8661;45.700;4.880;2023-03-14T05:38:20;0.20;;;0.20;;
17091;SDS011;8661;45.700;4.880;2023-03-14T05:40:47;0.20;;;0.20;;
17091;SDS011;8661;45.700;4.880;2023-03-14T05:43:14;0.20;;;0.20;;
17091;SDS011;8661;45.700;4.880;2023-03-14T05:45:41;0.20;;;0.20;;
17091;SDS011;8661;45.700;4.880;2023-03-14T05:48:08;0.20;;;0.20;;
17091;SDS011;8661;45.700;4.880;2023-03-14T05:50:35;0.23;;;0.23;;
17091;SDS011;8661;45.700;4.880;2023-03-14T05:53:02;0.20;;;0.20;;
17091;SDS011;8661;45.700;4.880;2023-03-14T05:55:31;0.30;;;0.30;;
17091;SDS011;8661;45.700;4.880;2023-03-14T05:57:58;0.20;;;0.20;;
17091;SDS011;8661;45.700;4.880;2023-03-14T06:00:24;0.10;;;0.10;;
17091;SDS011;8661;45.700;4.880;2023-03-14T06:02:51;0.20;;;0.20;;
17091;SDS011;8661;45.700;4.880;2023-03-14T06:05:18;0.20;;;0.20;;
17091;SDS011;8661;45.700;4.880;2023-03-14T06:07:45;0.20;;;0.20;;
17091;SDS011;8661;45.700;4.880;2023-03-14T06:10:12;0.10;;;0.10;;
17091;SDS011;8661;45.700;4.880;2023-03-14T06:12:40;0.20;;;0.20;;
17091;SDS011;8661;45.700;4.880;2023-03-14T06:15:07;0.20;;;0.20;;
17091;SDS011;8661;45.700;4.880;2023-03-14T06:17:35;0.10;;;0.10;;
17091;SDS011;8661;45.700;4.880;2023-03-14T06:20:02;0.20;;;0.20;;
17091;SDS011;8661;45.700;4.880;2023-03-14T06:22:29;0.10;;;0.10;;
17091;SDS011;8661;45.700;4.880;2023-03-14T06:24:55;0.20;;;0.20;;
17091;SDS011;8661;45.700;4.880;2023-03-14T06:27:22;0.10;;;0.10;;
17091;SDS011;8661;45.700;4.880;2023-03-14T06:29:51;0.20;;;0.20;;
17091;SDS011;8661;45.700;4.880;2023-03-14T06:32:17;0.30;;;0.30;;
17091;SDS011;8661;45.700;4.880;2023-03-14T06:34:45;0.20;;;0.20;;
17091;SDS011;8661;45.700;4.880;2023-03-14T06:37:12;0.10;;;0.10;;
17091;SDS011;8661;45.700;4.880;2023-03-14T06:39:39;0.20;;;0.20;;
17091;SDS011;8661;45.700;4.880;2023-03-14T06:42:06;0.10;;;0.10;;
17091;SDS011;8661;45.700;4.880;2023-03-14T06:44:33;0.20;;;0.20;;
17091;SDS011;8661;45.700;4.880;2023-03-14T06:47:01;0.10;;;0.10;;
17091;SDS011;8661;45.700;4.880;2023-03-14T06:49:28;0.20;;;0.20;;
17091;SDS011;8661;45.700;4.880;2023-03-14T06:51:55;0.10;;;0.10;;
17091;SDS011;8661;45.700;4.880;2023-03-14T06:54:22;0.30;;;0.30;;
17091;SDS011;8661;45.700;4.880;2023-03-14T06:56:49;0.30;;;0.30;;
17091;SDS011;8661;45.700;4.880;2023-03-14T06:59:21;0.20;;;0.20;;
17091;SDS011;8661;45.700;4.880;2023-03-14T07:01:48;0.20;;;0.20;;
17091;SDS011;8661;45.700;4.880;2023-03-14T07:04:17;0.20;;;0.20;;
17091;SDS011;8661;45.700;4.880;2023-03-14T07:06:44;0.20;;;0.20;;
17091;SDS011;8661;45.700;4.880;2023-03-14T07:09:11;0.20;;;0.20;;
17091;SDS011;8661;45.700;4.880;2023-03-14T07:11:39;0.20;;;0.20;;
17091;SDS011;8661;45.700;4.880;2023-03-14T07:14:07;0.20;;;0.20;;
17091;SDS011;8661;45.700;4.880;2023-03-14T07:16:34;0.10;;;0.10;;
17091;SDS011;8661;45.700;4.880;2023-03-14T07:19:01;0.10;;;0.10;;
17091;SDS011;8661;45.700;4.880;2023-03-14T07:21:30;0.30;;;0.30;;
17091;SDS011;8661;45.700;4.880;2023-03-14T07:23:59;0.20;;;0.20;;
17091;SDS011;8661;45.700;4.880;2023-03-14T07:26:26;0.20;;;0.20;;
17091;SDS011;8661;45.700;4.880;2023-03-14T07:28:53;0.20;;;0.20;;
17091;SDS011;8661;45.700;4.880;2023-03-14T07:31:20;0.20;;;0.20;;
17091;SDS011;8661;45.700;4.880;2023-03-14T07:33:47;0.20;;;0.20;;
17091;SDS011;8661;45.700;4.880;2023-03-14T07:36:14;0.57;;;0.57;;
17091;SDS011;8661;45.700;4.880;2023-03-14T07:38:42;0.13;;;0.13;;
17091;SDS011;8661;45.700;4.880;2023-03-14T07:41:09;0.20;;;0.20;;
17091;SDS011;8661;45.700;4.880;2023-03-14T07:43:36;0.20;;;0.20;;
17091;SDS011;8661;45.700;4.880;2023-03-14T07:46:03;0.20;;;0.20;;
17091;SDS011;8661;45.700;4.880;2023-03-14T07:48:30;0.20;;;0.20;;
17091;SDS011;8661;45.700;4.880;2023-03-14T07:50:57;0.20;;;0.20;;
17091;SDS011;8661;45.700;4.880;2023-03-14T07:53:24;0.20;;;0.20;;
17091;SDS011;8661;45.700;4.880;2023-03-14T07:55:52;0.20;;;0.20;;
17091;SDS011;8661;45.700;4.880;2023-03-14T07:58:20;0.20;;;0.20;;
17091;SDS011;8661;45.700;4.880;2023-03-14T08:00:47;0.20;;;0.20;;
17091;SDS011;8661;45.700;4.880;2023-03-14T08:03:15;0.30;;;0.30;;
17091;SDS011;8661;45.700;4.880;2023-03-14T08:05:42;0.10;;;0.10;;
17091;SDS011;8661;45.700;4.880;2023-03-14T08:08:09;0.20;;;0.20;;
17091;SDS011;8661;45.700;4.880;2023-03-14T08:10:36;0.20;;;0.20;;
17091;SDS011;8661;45.700;4.880;2023-03-14T08:13:04;0.10;;;0.10;;
17091;SDS011;8661;45.700;4.880;2023-03-14T08:15:31;0.10;;;0.10;;
17091;SDS011;8661;45.700;4.880;2023-03-14T08:17:58;0.10;;;0.10;;
17091;SDS011;8661;45.700;4.880;2023-03-14T08:20:26;0.30;;;0.30;;
17091;SDS011;8661;45.700;4.880;2023-03-14T08:22:55;0.20;;;0.20;;
17091;SDS011;8661;45.700;4.880;2023-03-14T08:25:23;0.30;;;0.30;;
17091;SDS011;8661;45.700;4.880;2023-03-14T08:27:50;0.17;;;0.17;;
17091;SDS011;8661;45.700;4.880;2023-03-14T08:30:18;0.10;;;0.10;;
17091;SDS011;8661;45.700;4.880;2023-03-14T08:32:46;0.20;;;0.20;;
17091;SDS011;8661;45.700;4.880;2023-03-14T08:35:13;0.20;;;0.20;;
17091;SDS011;8661;45.700;4.880;2023-03-14T08:37:41;1.30;;;1.20;;
17091;SDS011;8661;45.700;4.880;2023-03-14T08:40:08;0.60;;;0.60;;
17091;SDS011;8661;45.700;4.880;2023-03-14T08:42:36;0.43;;;0.33;;
17091;SDS011;8661;45.700;4.880;2023-03-14T08:45:04;0.70;;;0.37;;
17091;SDS011;8661;45.700;4.880;2023-03-14T08:47:34;0.10;;;0.10;;
17091;SDS011;8661;45.700;4.880;2023-03-14T08:50:01;0.23;;;0.23;;
17091;SDS011;8661;45.700;4.880;2023-03-14T08:52:29;0.50;;;0.40;;
17091;SDS011;8661;45.700;4.880;2023-03-14T08:54:56;0.67;;;0.67;;
17091;SDS011;8661;45.700;4.880;2023-03-14T08:57:23;3.93;;;0.90;;
17091;SDS011;8661;45.700;4.880;2023-03-14T08:59:52;0.63;;;0.50;;
17091;SDS011;8661;45.700;4.880;2023-03-14T09:02:19;0.10;;;0.10;;
17091;SDS011;8661;45.700;4.880;2023-03-14T09:04:47;0.33;;;0.33;;
17091;SDS011;8661;45.700;4.880;2023-03-14T09:07:15;0.10;;;0.10;;
17091;SDS011;8661;45.700;4.880;2023-03-14T09:09:42;0.20;;;0.20;;
17091;SDS011;8661;45.700;4.880;2023-03-14T09:12:09;0.30;;;0.30;;
17091;SDS011;8661;45.700;4.880;2023-03-14T09:14:36;0.20;;;0.20;;
17091;SDS011;8661;45.700;4.880;2023-03-14T09:17:03;0.20;;;0.20;;
17091;SDS011;8661;45.700;4.880;2023-03-14T09:19:30;0.20;;;0.20;;
17091;SDS011;8661;45.700;4.880;2023-03-14T09:21:59;0.20;;;0.20;;
17091;SDS011;8661;45.700;4.880;2023-03-14T09:24:25;0.20;;;0.20;;
17091;SDS011;8661;45.700;4.880;2023-03-14T09:26:52;0.33;;;0.33;;
17091;SDS011;8661;45.700;4.880;2023-03-14T09:29:21;0.20;;;0.20;;
17091;SDS011;8661;45.700;4.880;2023-03-14T09:31:48;0.30;;;0.30;;
17091;SDS011;8661;45.700;4.880;2023-03-14T09:34:14;7.63;;;1.40;;
17091;SDS011;8661;45.700;4.880;2023-03-14T09:36:41;5.83;;;1.33;;
17091;SDS011;8661;45.700;4.880;2023-03-14T09:39:10;5.10;;;1.50;;
17091;SDS011;8661;45.700;4.880;2023-03-14T09:41:38;7.30;;;1.30;;
17091;SDS011;8661;45.700;4.880;2023-03-14T09:44:08;3.93;;;1.20;;
17091;SDS011;8661;45.700;4.880;2023-03-14T09:46:38;8.23;;;1.47;;
17091;SDS011;8661;45.700;4.880;2023-03-14T09:49:11;3.30;;;0.70;;
17091;SDS011;8661;45.700;4.880;2023-03-14T09:51:42;1.90;;;0.97;;
17091;SDS011;8661;45.700;4.880;2023-03-14T09:54:18;2.27;;;0.80;;
17091;SDS011;8661;45.700;4.880;2023-03-14T09:56:56;2.03;;;0.60;;
17091;SDS011;8661;45.700;4.880;2023-03-14T09:59:23;1.07;;;0.67;;
17091;SDS011;8661;45.700;4.880;2023-03-14T10:01:51;3.67;;;0.60;;
17091;SDS011;8661;45.700;4.880;2023-03-14T10:04:20;2.57;;;0.70;;
17091;SDS011;8661;45.700;4.880;2023-03-14T10:06:49;1.10;;;0.60;;
17091;SDS011;8661;45.700;4.880;2023-03-14T10:09:19;0.60;;;0.60;;
17091;SDS011;8661;45.700;4.880;2023-03-14T10:11:51;0.67;;;0.60;;
17091;SDS011;8661;45.700;4.880;2023-03-14T10:14:29;0.70;;;0.50;;
17091;SDS011;8661;45.700;4.880;2023-03-14T10:17:04;1.23;;;0.63;;
17091;SDS011;8661;45.700;4.880;2023-03-14T10:19:33;0.90;;;0.60;;
17091;SDS011;8661;45.700;4.880;2023-03-14T10:22:01;3.00;;;0.70;;
17091;SDS011;8661;45.700;4.880;2023-03-14T10:24:32;3.70;;;1.00;;
17091;SDS011;8661;45.700;4.880;2023-03-14T10:27:00;4.93;;;1.60;;
17091;SDS011;8661;45.700;4.880;2023-03-14T10:29:29;4.77;;;2.23;;
17091;SDS011;8661;45.700;4.880;2023-03-14T10:32:19;3.70;;;1.83;;
17091;SDS011;8661;45.700;4.880;2023-03-14T10:35:03;1.80;;;1.00;;
17091;SDS011;8661;45.700;4.880;2023-03-14T10:37:32;1.90;;;1.07;;
17091;SDS011;8661;45.700;4.880;2023-03-14T10:40:01;2.33;;;0.80;;
17091;SDS011;8661;45.700;4.880;2023-03-14T10:42:30;2.57;;;0.70;;
17091;SDS011;8661;45.700;4.880;2023-03-14T10:45:00;2.03;;;0.80;;
17091;SDS011;8661;45.700;4.880;2023-03-14T10:47:30;2.90;;;1.07;;
17091;SDS011;8661;45.700;4.880;2023-03-14T10:50:18;4.20;;;3.17;;
17091;SDS011;8661;45.700;4.880;2023-03-14T10:52:49;2.43;;;1.40;;
17091;SDS011;8661;45.700;4.880;2023-03-14T10:55:22;1.40;;;0.80;;
17091;SDS011;8661;45.700;4.880;2023-03-14T10:57:51;2.70;;;0.90;;
17091;SDS011;8661;45.700;4.880;2023-03-14T11:00:19;3.57;;;1.03;;
17091;SDS011;8661;45.700;4.880;2023-03-14T11:02:55;6.93;;;1.20;;
17091;SDS011;8661;45.700;4.880;2023-03-14T11:05:34;3.07;;;0.90;;
17091;SDS011;8661;45.700;4.880;2023-03-14T11:08:07;2.57;;;1.20;;
17091;SDS011;8661;45.700;4.880;2023-03-14T11:10:41;2.73;;;1.00;;
17091;SDS011;8661;45.700;4.880;2023-03-14T11:13:15;3.30;;;1.20;;
17091;SDS011;8661;45.700;4.880;2023-03-14T11:15:49;3.00;;;1.53;;
17091;SDS011;8661;45.700;4.880;2023-03-14T11:18:30;3.83;;;1.10;;
17091;SDS011;8661;45.700;4.880;2023-03-14T11:21:18;7.67;;;2.50;;
17091;SDS011;8661;45.700;4.880;2023-03-14T11:23:51;6.60;;;1.30;;
17091;SDS011;8661;45.700;4.880;2023-03-14T11:26:31;2.13;;;1.10;;
17091;SDS011;8661;45.700;4.880;2023-03-14T11:29:08;3.00;;;1.20;;
17091;SDS011;8661;45.700;4.880;2023-03-14T11:31:45;3.47;;;1.40;;
17091;SDS011;8661;45.700;4.880;2023-03-14T11:34:15;2.63;;;1.00;;
17091;SDS011;8661;45.700;4.880;2023-03-14T11:36:44;3.13;;;1.30;;
17091;SDS011;8661;45.700;4.880;2023-03-14T11:39:17;2.73;;;1.03;;
17091;SDS011;8661;45.700;4.880;2023-03-14T11:41:46;5.47;;;1.30;;
17091;SDS011;8661;45.700;4.880;2023-03-14T11:44:17;3.80;;;1.47;;
17091;SDS011;8661;45.700;4.880;2023-03-14T11:46:47;3.67;;;1.13;;
17091;SDS011;8661;45.700;4.880;2023-03-14T11:49:22;3.27;;;1.10;;
17091;SDS011;8661;45.700;4.880;2023-03-14T11:51:57;1.50;;;0.80;;
17091;SDS011;8661;45.700;4.880;2023-03-14T11:54:31;2.50;;;0.83;;
17091;SDS011;8661;45.700;4.880;2023-03-14T11:57:09;2.80;;;1.17;;
17091;SDS011;8661;45.700;4.880;2023-03-14T11:59:41;1.30;;;1.00;;
17091;SDS011;8661;45.700;4.880;2023-03-14T12:02:17;2.40;;;1.10;;
17091;SDS011;8661;45.700;4.880;2023-03-14T12:05:00;3.00;;;0.63;;
17091;SDS011;8661;45.700;4.880;2023-03-14T12:07:51;2.13;;;0.90;;
17091;SDS011;8661;45.700;4.880;2023-03-14T12:10:49;3.63;;;0.93;;
17091;SDS011;8661;45.700;4.880;2023-03-14T12:13:22;1.87;;;0.80;;
17091;SDS011;8661;45.700;4.880;2023-03-14T12:15:56;2.83;;;1.40;;
17091;SDS011;8661;45.700;4.880;2023-03-14T12:18:26;3.23;;;0.90;;
17091;SDS011;8661;45.700;4.880;2023-03-14T12:20:56;3.87;;;1.00;;
17091;SDS011;8661;45.700;4.880;2023-03-14T12:23:25;3.57;;;0.90;;
17091;SDS011;8661;45.700;4.880;2023-03-14T12:26:13;3.37;;;1.00;;
17091;SDS011;8661;45.700;4.880;2023-03-14T12:28:48;4.83;;;1.10;;
17091;SDS011;8661;45.700;4.880;2023-03-14T12:37:05;5.27;;;1.47;;
17091;SDS011;8661;45.700;4.880;2023-03-14T12:39:43;4.67;;;1.33;;
17091;SDS011;8661;45.700;4.880;2023-03-14T12:42:17;2.97;;;1.23;;
17091;SDS011;8661;45.700;4.880;2023-03-14T12:44:51;5.33;;;1.00;;
17091;SDS011;8661;45.700;4.880;2023-03-14T12:50:27;2.87;;;1.10;;
17091;SDS011;8661;45.700;4.880;2023-03-14T12:56:06;2.67;;;0.90;;
17091;SDS011;8661;45.700;4.880;2023-03-14T12:58:43;2.60;;;0.80;;
17091;SDS011;8661;45.700;4.880;2023-03-14T13:01:16;2.77;;;1.17;;
17091;SDS011;8661;45.700;4.880;2023-03-14T13:03:45;2.37;;;1.00;;
17091;SDS011;8661;45.700;4.880;2023-03-14T13:09:34;3.70;;;1.03;;
17091;SDS011;8661;45.700;4.880;2023-03-14T13:12:02;2.37;;;1.00;;
17091;SDS011;8661;45.700;4.880;2023-03-14T13:14:35;3.20;;;0.97;;
17091;SDS011;8661;45.700;4.880;2023-03-14T13:17:10;3.60;;;1.10;;
17091;SDS011;8661;45.700;4.880;2023-03-14T13:19:38;5.17;;;1.60;;
17091;SDS011;8661;45.700;4.880;2023-03-14T13:22:06;1.97;;;0.70;;
17091;SDS011;8661;45.700;4.880;2023-03-14T13:24:42;1.20;;;0.67;;
17091;SDS011;8661;45.700;4.880;2023-03-14T13:27:09;1.90;;;0.90;;
17091;SDS011;8661;45.700;4.880;2023-03-14T13:29:45;2.43;;;1.07;;
17091;SDS011;8661;45.700;4.880;2023-03-14T13:32:19;1.20;;;0.60;;
17091;SDS011;8661;45.700;4.880;2023-03-14T13:34:47;2.13;;;0.70;;
17091;SDS011;8661;45.700;4.880;2023-03-14T13:37:19;2.73;;;0.90;;
17091;SDS011;8661;45.700;4.880;2023-03-14T13:39:49;2.20;;;0.80;;
17091;SDS011;8661;45.700;4.880;2023-03-14T13:42:18;3.53;;;1.53;;
17091;SDS011;8661;45.700;4.880;2023-03-14T13:44:45;1.40;;;0.90;;
17091;SDS011;8661;45.700;4.880;2023-03-14T13:47:14;2.70;;;0.87;;
17091;SDS011;8661;45.700;4.880;2023-03-14T13:49:43;3.47;;;0.90;;
17091;SDS011;8661;45.700;4.880;2023-03-14T13:52:21;6.77;;;1.37;;
17091;SDS011;8661;45.700;4.880;2023-03-14T13:54:55;6.00;;;1.23;;
17091;SDS011;8661;45.700;4.880;2023-03-14T13:57:22;1.67;;;0.70;;
17091;SDS011;8661;45.700;4.880;2023-03-14T13:59:59;2.83;;;1.00;;
17091;SDS011;8661;45.700;4.880;2023-03-14T14:02:30;5.37;;;1.10;;
17091;SDS011;8661;45.700;4.880;2023-03-14T14:05:00;4.77;;;1.50;;
17091;SDS011;8661;45.700;4.880;2023-03-14T14:07:28;6.03;;;1.00;;
17091;SDS011;8661;45.700;4.880;2023-03-14T14:09:55;2.63;;;0.90;;
17091;SDS011;8661;45.700;4.880;2023-03-14T14:12:22;4.97;;;1.10;;
17091;SDS011;8661;45.700;4.880;2023-03-14T14:14:55;4.93;;;1.07;;
17091;SDS011;8661;45.700;4.880;2023-03-14T14:17:26;5.70;;;1.23;;
17091;SDS011;8661;45.700;4.880;2023-03-14T14:19:56;3.63;;;1.20;;
17091;SDS011;8661;45.700;4.880;2023-03-14T14:22:25;4.37;;;0.90;;
17091;SDS011;8661;45.700;4.880;2023-03-14T14:24:53;2.83;;;1.03;;
17091;SDS011;8661;45.700;4.880;2023-03-14T14:27:23;3.33;;;1.00;;
17091;SDS011;8661;45.700;4.880;2023-03-14T14:29:56;3.07;;;0.87;;
17091;SDS011;8661;45.700;4.880;2023-03-14T14:32:26;2.17;;;0.83;;
17091;SDS011;8661;45.700;4.880;2023-03-14T14:34:57;6.57;;;1.20;;
17091;SDS011;8661;45.700;4.880;2023-03-14T14:37:26;3.53;;;1.30;;
17091;SDS011;8661;45.700;4.880;2023-03-14T14:39:56;2.90;;;1.00;;
17091;SDS011;8661;45.700;4.880;2023-03-14T14:42:26;3.33;;;1.20;;
17091;SDS011;8661;45.700;4.880;2023-03-14T14:44:55;3.83;;;1.07;;
17091;SDS011;8661;45.700;4.880;2023-03-14T14:47:23;4.17;;;1.10;;
17091;SDS011;8661;45.700;4.880;2023-03-14T14:49:52;2.50;;;1.00;;
17091;SDS011;8661;45.700;4.880;2023-03-14T14:52:21;3.87;;;1.20;;
17091;SDS011;8661;45.700;4.880;2023-03-14T14:54:59;2.00;;;0.93;;
17091;SDS011;8661;45.700;4.880;2023-03-14T14:57:27;5.53;;;1.20;;
17091;SDS011;8661;45.700;4.880;2023-03-14T15:00:00;4.40;;;1.00;;
17091;SDS011;8661;45.700;4.880;2023-03-14T15:02:32;3.17;;;0.73;;
17091;SDS011;8661;45.700;4.880;2023-03-14T15:05:05;3.10;;;1.10;;
17091;SDS011;8661;45.700;4.880;2023-03-14T15:07:38;5.23;;;1.00;;
17091;SDS011;8661;45.700;4.880;2023-03-14T15:10:09;4.70;;;1.37;;
17091;SDS011;8661;45.700;4.880;2023-03-14T15:12:37;2.73;;;0.90;;
17091;SDS011;8661;45.700;4.880;2023-03-14T15:15:05;2.03;;;1.10;;
17091;SDS011;8661;45.700;4.880;2023-03-14T15:17:33;2.77;;;1.17;;
17091;SDS011;8661;45.700;4.880;2023-03-14T15:20:01;4.43;;;1.13;;
17091;SDS011;8661;45.700;4.880;2023-03-14T15:22:29;3.70;;;1.00;;
17091;SDS011;8661;45.700;4.880;2023-03-14T15:24:56;4.30;;;0.90;;
17091;SDS011;8661;45.700;4.880;2023-03-14T15:27:25;1.57;;;0.80;;
17091;SDS011;8661;45.700;4.880;2023-03-14T15:29:53;4.90;;;1.10;;